Time;durP1;ratioP1;P1;durP2;ratioP2;P2;SDS_P1;SDS_P2;PMS_P1;PMS_P2;Temp;Humidity;BMP_temperature;BMP_pressure;BME280_temperature;BME280_humidity;BME280_pressure;Samples;Min_cycle;Max_cycle;Signal;HPM_P1;HPM_P2
2022/09/05 00:02:08;;;;;;;10.35;6.35;;;;;;;10.74;100.00;100365.95;1753971;81;21018;-65
2022/09/05 00:05:03;;;;;;;9.35;5.80;;;;;;;10.74;100.00;100370.56;1757012;81;21426;-64
2022/09/05 00:08:05;;;;;;;11.18;5.60;;;;;;;10.74;100.00;100363.77;1753882;81;20987;-65
2022/09/05 00:10:43;;;;;;;13.20;6.35;;;;;;;10.73;100.00;100367.05;1755523;81;21691;-64
2022/09/05 00:13:15;;;;;;;12.10;6.17;;;;;;;10.78;100.00;100359.45;1755213;81;20943;-65
2022/09/05 00:15:57;;;;;;;9.75;5.95;;;;;;;10.85;100.00;100360.05;1746271;80;20987;-65
2022/09/05 00:18:30;;;;;;;11.63;5.97;;;;;;;10.88;100.00;100359.53;1752241;81;21396;-65
2022/09/05 00:21:18;;;;;;;10.08;6.03;;;;;;;10.87;100.00;100357.91;1755583;81;21503;-65
2022/09/05 00:24:18;;;;;;;9.33;6.10;;;;;;;10.88;100.00;100358.17;1756108;81;21457;-65
2022/09/05 00:27:20;;;;;;;12.25;5.92;;;;;;;10.88;100.00;100355.45;1751151;80;21078;-65
2022/09/05 00:30:16;;;;;;;11.48;5.95;;;;;;;10.86;100.00;100357.62;1743408;80;21026;-64
2022/09/05 00:33:03;;;;;;;10.13;5.15;;;;;;;10.81;100.00;100350.75;1758579;81;21061;-64
2022/09/05 00:35:57;;;;;;;8.98;5.55;;;;;;;10.80;100.00;100345.87;1755698;80;21585;-65
2022/09/05 00:38:26;;;;;;;9.10;5.10;;;;;;;10.79;100.00;100343.40;1743404;81;21011;-64
2022/09/05 00:41:01;;;;;;;8.38;5.33;;;;;;;10.84;100.00;100341.53;1758588;80;21065;-64
2022/09/05 00:43:32;;;;;;;10.75;5.72;;;;;;;10.90;100.00;100339.16;1749852;81;21041;-64
2022/09/05 00:46:12;;;;;;;10.88;5.08;;;;;;;10.94;100.00;100340.28;1758886;80;21137;-65
2022/09/05 00:49:16;;;;;;;10.23;5.30;;;;;;;10.93;100.00;100337.80;1748610;81;21693;-64
2022/09/05 00:52:08;;;;;;;11.35;5.40;;;;;;;10.92;100.00;100333.43;1758101;80;21140;-64
2022/09/05 00:55:06;;;;;;;13.30;5.80;;;;;;;10.91;100.00;100325.80;1749238;81;21045;-64
2022/09/05 00:58:20;;;;;;;11.20;5.22;;;;;;;10.89;100.00;100327.97;1751296;81;21566;-64
2022/09/05 01:00:57;;;;;;;9.20;4.72;;;;;;;10.84;100.00;100323.03;1754722;80;21637;-64
2022/09/05 01:04:18;;;;;;;10.15;5.60;;;;;;;10.84;100.00;100316.22;1759885;81;21015;-64
2022/09/05 01:07:13;;;;;;;11.05;5.40;;;;;;;10.89;100.00;100323.05;1759139;80;21632;-64
2022/09/05 01:10:18;;;;;;;8.40;4.78;;;;;;;10.90;100.00;100319.27;1760421;81;20987;-64
2022/09/05 01:13:31;;;;;;;8.95;5.20;;;;;;;10.87;100.00;100318.42;1748030;81;20994;-64
2022/09/05 01:16:26;;;;;;;10.35;5.35;;;;;;;10.89;100.00;100318.97;1754786;80;21563;-64
2022/09/05 01:19:19;;;;;;;10.60;4.95;;;;;;;10.87;100.00;100311.61;1752260;81;21031;-64
2022/09/05 01:22:17;;;;;;;10.43;4.92;;;;;;;10.87;100.00;100309.72;1752758;81;21093;-64
2022/09/05 01:25:19;;;;;;;9.73;5.25;;;;;;;10.86;100.00;100317.59;1758300;80;21026;-64
2022/09/05 01:28:18;;;;;;;10.05;5.08;;;;;;;10.85;100.00;100319.20;1743921;81;21061;-64
2022/09/05 01:31:07;;;;;;;;;;;;;;;10.81;100.00;100309.91;1745999;80;21162;-65
2022/09/05 01:33:57;;;;;;;10.08;4.53;;;;;;;10.86;100.00;100309.96;1746353;82;20123;-65
2022/09/05 01:37:04;;;;;;;7.83;4.45;;;;;;;10.88;100.00;100309.97;1720776;82;21089;-64
2022/09/05 01:39:57;;;;;;;11.08;4.20;;;;;;;10.91;100.00;100311.37;1751086;82;21646;-64
2022/09/05 01:42:32;;;;;;;8.55;4.95;;;;;;;10.87;100.00;100304.80;1747245;82;21069;-64
2022/09/05 01:45:24;;;;;;;9.43;4.87;;;;;;;10.85;100.00;100311.86;1750638;80;22206;-64
2022/09/05 01:48:05;;;;;;;7.92;4.80;;;;;;;10.84;100.00;100306.13;1748994;82;21099;-64
2022/09/05 01:51:16;;;;;;;9.70;5.28;;;;;;;10.83;100.00;100310.48;1748469;81;21778;-64
2022/09/05 01:53:54;;;;;;;9.13;4.72;;;;;;;10.78;100.00;100310.43;1750679;82;21089;-64
2022/09/05 01:57:03;;;;;;;10.75;4.75;;;;;;;10.77;100.00;100314.25;1732133;82;21156;-64
2022/09/05 01:59:55;;;;;;;;;;;;;;;10.82;100.00;100317.00;1751969;82;21062;-64
2022/09/05 02:02:49;;;;;;;8.23;4.55;;;;;;;10.82;100.00;100314.28;1749231;82;20169;-64
2022/09/05 02:05:24;;;;;;;10.90;4.75;;;;;;;10.75;100.00;100319.13;1745982;80;21094;-64
2022/09/05 02:08:11;;;;;;;6.60;4.62;;;;;;;10.75;100.00;100303.61;1749504;82;21051;-64
2022/09/05 02:11:03;;;;;;;7.12;4.75;;;;;;;10.76;100.00;100316.15;1750720;80;21144;-64
2022/09/05 02:13:38;;;;;;;9.63;4.97;;;;;;;10.76;100.00;100311.23;1748602;82;21068;-64
2022/09/05 02:16:33;;;;;;;9.35;5.00;;;;;;;10.74;100.00;100315.57;1748917;80;21986;-64
2022/09/05 02:19:18;;;;;;;10.48;4.67;;;;;;;10.76;100.00;100311.23;1746373;82;21018;-64
2022/09/05 02:22:10;;;;;;;11.28;4.87;;;;;;;10.81;100.00;100304.45;1751091;80;21663;-64
2022/09/05 02:24:49;;;;;;;11.05;5.62;;;;;;;10.90;100.00;100305.11;1733491;82;20983;-65
2022/09/05 02:27:28;;;;;;;11.70;6.08;;;;;;;10.97;100.00;100308.43;1751616;81;21065;-64
2022/09/05 02:30:22;;;;;;;8.03;4.80;;;;;;;10.96;100.00;100310.86;1728306;80;21054;-64
2022/09/05 02:33:28;;;;;;;11.85;6.62;;;;;;;10.96;100.00;100300.51;1738354;82;21073;-64
2022/09/05 02:36:15;;;;;;;13.13;6.33;;;;;;;10.96;100.00;100310.04;1741418;80;21141;-64
2022/09/05 02:41:24;;;;;;;10.23;5.85;;;;;;;10.97;100.00;100297.53;1774021;79;22766;-66
2022/09/05 02:44:05;;;;;;;10.43;5.85;;;;;;;10.90;100.00;100298.30;1728493;82;21015;-65
2022/09/05 02:46:55;;;;;;;10.38;5.87;;;;;;;10.92;100.00;100303.47;1738934;82;21122;-65
2022/09/05 02:49:44;;;;;;;12.75;5.78;;;;;;;10.97;100.00;100292.62;1741129;82;21883;-66
2022/09/05 02:52:13;;;;;;;8.93;5.62;;;;;;;11.06;100.00;100290.22;1733179;81;21935;-63
2022/09/05 02:54:43;;;;;;;9.25;5.53;;;;;;;11.07;100.00;100290.50;1744517;82;21601;-63
2022/09/05 02:57:34;;;;;;;9.00;5.22;;;;;;;11.06;100.00;100297.03;1733171;82;20967;-64
2022/09/05 03:00:12;;;;;;;8.93;5.80;;;;;;;11.07;100.00;100302.23;1727636;82;21610;-64
2022/09/05 03:03:15;;;;;;;9.93;5.45;;;;;;;11.06;100.00;100302.48;1737370;82;21011;-64
2022/09/05 03:06:24;;;;;;;7.95;5.20;;;;;;;11.05;100.00;100305.77;1739256;82;21094;-63
2022/09/05 03:09:18;;;;;;;10.15;5.50;;;;;;;11.09;100.00;100306.86;1740313;82;21058;-64
2022/09/05 03:12:07;;;;;;;8.90;5.40;;;;;;;11.14;100.00;100300.64;1722008;82;21157;-64
2022/09/05 03:15:03;;;;;;;10.58;5.37;;;;;;;11.12;100.00;100306.37;1727637;82;21118;-63
2022/09/05 03:18:01;;;;;;;12.30;6.10;;;;;;;11.10;100.00;100309.05;1737985;82;21548;-63
2022/09/05 03:21:00;;;;;;;9.08;5.45;;;;;;;11.06;100.00;100304.66;1714863;82;21114;-63
2022/09/05 03:23:51;;;;;;;8.95;5.25;;;;;;;11.01;100.00;100306.00;1687580;84;21125;-64
2022/09/05 03:26:43;;;;;;;8.80;5.62;;;;;;;10.96;100.00;100304.59;1699054;84;21126;-63
2022/09/05 03:29:29;;;;;;;9.98;5.35;;;;;;;10.92;100.00;100304.83;1689810;84;21578;-63
2022/09/05 03:32:30;;;;;;;8.93;5.43;;;;;;;10.90;100.00;100305.64;1693441;84;21102;-64
2022/09/05 03:35:20;;;;;;;9.35;5.85;;;;;;;10.91;100.00;100308.66;1687346;84;21138;-64
2022/09/05 03:38:32;;;;;;;11.08;6.10;;;;;;;10.97;100.00;100305.70;1674916;84;21062;-64
2022/09/05 03:41:37;;;;;;;11.45;5.55;;;;;;;10.98;100.00;100306.53;1676917;84;21756;-64
2022/09/05 03:44:31;;;;;;;10.82;5.37;;;;;;;10.96;100.00;100312.77;1671116;85;21462;-64
2022/09/05 03:47:18;;;;;;;9.63;6.00;;;;;;;10.95;100.00;100311.94;1679447;85;21875;-64
2022/09/05 03:49:59;;;;;;;12.07;5.72;;;;;;;10.95;100.00;100315.20;1675899;85;21032;-64
2022/09/05 03:52:43;;;;;;;12.93;6.12;;;;;;;10.95;100.00;100313.30;1672337;85;21488;-64
2022/09/05 03:55:32;;;;;;;9.18;5.60;;;;;;;10.95;100.00;100306.48;1661830;85;21059;-64
2022/09/05 03:58:33;;;;;;;9.65;5.83;;;;;;;11.00;100.00;100309.80;1671346;85;21004;-64
2022/09/05 04:01:26;;;;;;;11.97;6.12;;;;;;;11.08;100.00;100313.41;1640142;85;21091;-64
2022/09/05 04:03:56;;;;;;;8.73;5.80;;;;;;;11.09;100.00;100310.95;1666815;85;20996;-64
2022/09/05 04:06:40;;;;;;;9.78;5.62;;;;;;;11.10;100.00;100310.41;1672149;85;21565;-65
2022/09/05 04:09:20;;;;;;;7.95;5.40;;;;;;;11.09;100.00;100307.44;1724832;82;21609;-65
2022/09/05 04:11:49;;;;;;;10.25;6.15;;;;;;;11.08;100.00;100309.33;1731105;82;21055;-65
2022/09/05 04:14:29;;;;;;;12.45;6.33;;;;;;;11.10;100.00;100305.79;1723333;82;21019;-65
2022/09/05 04:17:00;;;;;;;10.75;6.20;;;;;;;11.16;100.00;100308.83;1724930;82;21055;-65
2022/09/05 04:19:43;;;;;;;13.03;6.72;;;;;;;11.25;100.00;100307.27;1727967;82;22305;-64
2022/09/05 04:22:41;;;;;;;13.32;7.10;;;;;;;11.30;100.00;100303.77;1721850;81;21011;-65
2022/09/05 04:25:46;;;;;;;13.93;7.22;;;;;;;11.32;100.00;100297.50;1716360;82;21089;-65
2022/09/05 04:28:27;;;;;;;12.25;7.50;;;;;;;11.34;100.00;100302.13;1716264;82;21582;-65
2022/09/05 04:31:01;;;;;;;11.90;6.87;;;;;;;11.35;100.00;100297.79;1716954;81;21126;-65
2022/09/05 04:33:38;;;;;;;15.18;7.65;;;;;;;11.40;100.00;100302.46;1707534;82;21484;-65
2022/09/05 04:36:33;;;;;;;12.33;6.50;;;;;;;11.44;100.00;100304.38;1719568;82;21091;-64
2022/09/05 04:39:23;;;;;;;10.08;6.33;;;;;;;11.52;100.00;100307.69;1727909;82;22247;-63
2022/09/05 04:41:54;;;;;;;10.98;6.12;;;;;;;11.60;100.00;100310.75;1730589;81;21094;-65
2022/09/05 04:44:38;;;;;;;12.47;6.30;;;;;;;11.62;100.00;100315.95;1749852;82;21053;-62
2022/09/05 04:47:12;;;;;;;12.25;6.25;;;;;;;11.64;100.00;100312.41;1749193;81;21047;-62
2022/09/05 04:49:40;;;;;;;11.75;6.28;;;;;;;11.67;100.00;100311.33;1743105;82;21030;-63
2022/09/05 04:52:15;;;;;;;13.25;6.80;;;;;;;11.75;100.00;100312.77;1738645;82;20976;-62
2022/09/05 04:54:52;;;;;;;12.47;6.25;;;;;;;11.81;100.00;100302.16;1751060;82;21608;-62
2022/09/05 04:57:30;;;;;;;11.75;6.55;;;;;;;11.87;100.00;100307.90;1723355;82;20980;-61
2022/09/05 05:00:04;;;;;;;10.25;6.50;;;;;;;11.94;100.00;100301.66;1743453;82;20999;-62
2022/09/05 05:02:46;;;;;;;13.43;6.22;;;;;;;12.01;100.00;100293.25;1744702;82;20971;-62
2022/09/05 05:05:25;;;;;;;11.63;5.85;;;;;;;12.13;100.00;100302.00;1728880;82;21047;-63
2022/09/05 05:08:10;;;;;;;9.98;5.65;;;;;;;12.26;100.00;100303.67;1747674;82;21033;-63
2022/09/05 05:10:45;;;;;;;10.72;5.80;;;;;;;12.35;100.00;100301.25;1727424;82;21125;-63
2022/09/05 05:13:24;;;;;;;11.38;5.92;;;;;;;12.41;100.00;100300.98;1732384;82;21011;-64
2022/09/05 05:16:13;;;;;;;8.95;6.20;;;;;;;12.48;100.00;100297.99;1739719;82;21083;-62
2022/09/05 05:18:53;;;;;;;10.60;5.55;;;;;;;12.56;100.00;100300.74;1750287;81;20987;-63
2022/09/05 05:21:25;;;;;;;10.58;5.87;;;;;;;12.65;100.00;100297.73;1724811;82;21102;-63
2022/09/05 05:24:14;;;;;;;14.30;5.70;;;;;;;12.73;100.00;100301.30;1751007;82;21086;-62
2022/09/05 05:26:52;;;;;;;10.30;5.50;;;;;;;12.81;100.00;100304.86;1750107;82;21066;-61
2022/09/05 05:29:32;;;;;;;20.02;6.62;;;;;;;12.88;100.00;100302.14;1750974;82;21054;-62
2022/09/05 05:32:00;;;;;;;13.60;7.33;;;;;;;12.97;100.00;100301.85;1718515;83;21568;-62
2022/09/05 05:34:30;;;;;;;11.25;6.58;;;;;;;13.03;100.00;100290.39;1721090;83;21094;-62
2022/09/05 05:37:08;;;;;;;9.30;6.10;;;;;;;13.16;100.00;100304.89;1734456;82;21146;-61
2022/09/05 05:39:41;;;;;;;11.68;5.90;;;;;;;13.27;100.00;100293.39;1746914;82;21035;-62
2022/09/05 05:42:18;;;;;;;10.85;6.12;;;;;;;13.35;100.00;100296.40;1722649;81;21595;-62
2022/09/05 05:44:53;;;;;;;11.75;6.28;;;;;;;13.39;100.00;100289.25;1721378;82;21015;-62
2022/09/05 05:47:28;;;;;;;14.23;7.12;;;;;;;13.50;100.00;100308.41;1722772;82;21595;-62
2022/09/05 05:50:15;;;;;;;12.78;6.90;;;;;;;13.57;100.00;100299.36;1721887;83;21004;-62
2022/09/05 05:53:14;;;;;;;11.12;6.42;;;;;;;13.68;100.00;100312.70;1722254;83;21052;-62
2022/09/05 05:56:13;;;;;;;11.10;6.40;;;;;;;13.78;100.00;100309.14;1719715;82;21110;-62
2022/09/05 05:58:59;;;;;;;10.75;6.70;;;;;;;13.86;100.00;100304.44;1739933;82;20995;-62
2022/09/05 06:02:14;;;;;;;11.03;6.67;;;;;;;14.04;100.00;100309.30;1750893;82;21103;-63
2022/09/05 06:05:12;;;;;;;12.55;7.37;;;;;;;14.30;100.00;100307.25;1721456;82;21531;-63
2022/09/05 06:07:43;;;;;;;;;;;;;;;14.82;100.00;100309.40;1715879;84;21072;-64
2022/09/05 06:10:24;;;;;;;14.53;7.37;;;;;;;15.18;100.00;100312.13;1713338;84;20136;-63
2022/09/05 06:13:27;;;;;;;16.42;7.95;;;;;;;15.37;100.00;100311.64;1706221;84;21054;-63
2022/09/05 06:16:40;;;;;;;12.25;7.37;;;;;;;15.65;100.00;100318.83;1739763;82;21601;-63
2022/09/05 06:19:32;;;;;;;12.15;7.53;;;;;;;15.74;100.00;100334.91;1750988;82;21055;-64
2022/09/05 06:22:26;;;;;;;13.68;6.92;;;;;;;15.67;100.00;100328.39;1735800;82;21469;-63
2022/09/05 06:25:13;;;;;;;14.00;7.25;;;;;;;15.59;100.00;100330.39;1720871;83;21045;-63
2022/09/05 06:28:12;;;;;;;15.80;7.65;;;;;;;15.49;100.00;100333.80;1636557;83;21106;-64
2022/09/05 06:31:07;;;;;;;15.32;7.72;;;;;;;15.35;100.00;100332.25;1703253;83;21149;-64
2022/09/05 06:33:54;;;;;;;14.25;8.08;;;;;;;15.17;100.00;100336.53;1711622;83;21123;-63
2022/09/05 06:36:29;;;;;;;16.65;8.50;;;;;;;15.04;100.00;100341.86;1718038;83;21059;-63
2022/09/05 06:39:17;;;;;;;15.20;8.50;;;;;;;14.95;100.00;100343.01;1738557;82;20986;-63
2022/09/05 06:41:57;;;;;;;17.05;8.58;;;;;;;14.90;100.00;100345.26;1720530;82;21041;-63
2022/09/05 06:44:39;;;;;;;18.60;9.20;;;;;;;14.88;100.00;100350.73;1723454;82;20993;-63
2022/09/05 06:47:10;;;;;;;13.38;8.70;;;;;;;14.89;100.00;100354.58;1723081;82;21064;-63
2022/09/05 06:50:15;;;;;;;17.70;9.48;;;;;;;14.87;100.00;100356.80;1699794;82;21511;-63
2022/09/05 06:53:09;;;;;;;22.22;11.80;;;;;;;14.89;100.00;100362.80;1737307;82;21550;-63
2022/09/05 06:56:01;;;;;;;22.10;14.50;;;;;;;14.93;100.00;100362.50;1723106;82;21619;-63
2022/09/05 06:58:42;;;;;;;38.38;24.52;;;;;;;14.92;100.00;100366.88;1724771;82;21023;-68
2022/09/05 07:01:10;;;;;;;39.23;25.32;;;;;;;14.89;100.00;100370.20;1722884;82;22065;-67
2022/09/05 07:04:16;;;;;;;36.90;24.50;;;;;;;14.94;100.00;100382.52;1710678;82;21557;-67
2022/09/05 07:07:16;;;;;;;30.62;20.55;;;;;;;15.17;100.00;100402.34;1714349;82;21126;-66
2022/09/05 07:10:17;;;;;;;35.45;23.62;;;;;;;15.49;100.00;100397.72;1736523;82;21553;-67
2022/09/05 07:12:51;;;;;;;78.17;53.50;;;;;;;15.65;100.00;100412.14;1721445;82;21107;-68
2022/09/05 07:15:46;;;;;;;98.60;64.30;;;;;;;15.77;100.00;100408.43;1702667;82;21598;-68
2022/09/05 07:18:44;;;;;;;105.35;71.77;;;;;;;15.71;100.00;100410.42;1736566;82;21086;-69
2022/09/05 07:21:19;;;;;;;135.40;90.50;;;;;;;15.52;100.00;100411.44;1737231;82;21043;-68
2022/09/05 07:23:59;;;;;;;139.18;93.05;;;;;;;15.32;100.00;100413.20;1679505;82;21035;-68
2022/09/05 07:26:25;;;;;;;140.35;95.38;;;;;;;15.10;100.00;100427.08;1718655;82;21090;-68
2022/09/05 07:28:57;;;;;;;;;;;;;;;14.85;100.00;100422.03;1733775;81;20933;-69
2022/09/05 07:31:27;;;;;;;138.45;88.07;;;;;;;14.58;100.00;100419.45;1709023;83;20114;-68
2022/09/05 07:34:13;;;;;;;137.10;89.62;;;;;;;14.29;100.00;100414.61;1709533;82;20980;-68
2022/09/05 07:36:46;;;;;;;134.33;87.33;;;;;;;14.03;100.00;100417.14;1708440;84;21023;-67
2022/09/05 07:39:17;;;;;;;141.18;91.37;;;;;;;13.92;100.00;100413.61;1714155;82;21463;-68
2022/09/05 07:41:50;;;;;;;128.18;81.00;;;;;;;13.73;100.00;100426.80;1703077;82;21043;-67
2022/09/05 07:44:28;;;;;;;127.87;79.75;;;;;;;13.48;100.00;100437.76;1720988;82;21051;-68
2022/09/05 07:47:10;;;;;;;125.92;80.65;;;;;;;13.23;100.00;100459.90;1732956;82;21131;-69
2022/09/05 07:49:38;;;;;;;133.47;86.15;;;;;;;13.17;100.00;100471.10;1720041;82;21059;-67
2022/09/05 07:52:19;;;;;;;136.47;84.15;;;;;;;13.07;100.00;100460.95;1713749;83;21091;-69
2022/09/05 07:54:50;;;;;;;131.57;79.07;;;;;;;13.00;100.00;100420.76;1720114;81;21096;-71
2022/09/05 07:57:27;;;;;;;123.47;74.87;;;;;;;12.89;100.00;100418.52;1732843;82;21050;-69
2022/09/05 07:59:57;;;;;;;107.05;69.58;;;;;;;12.85;100.00;100428.92;1715068;82;21077;-69
2022/09/05 08:02:23;;;;;;;119.42;77.70;;;;;;;12.78;100.00;100423.72;1725517;82;21114;-70
2022/09/05 08:04:50;;;;;;;;;;;;;;;12.78;100.00;100417.42;1723103;82;21025;-69
2022/09/05 08:07:30;;;;;;;115.80;70.52;;;;;;;12.81;100.00;100419.08;1714815;82;20823;-69
2022/09/05 08:10:13;;;;;;;114.92;69.50;;;;;;;12.86;100.00;100423.70;1717017;82;20984;-69
2022/09/05 08:12:46;;;;;;;101.58;63.02;;;;;;;12.99;100.00;100416.37;1719800;82;21103;-70
2022/09/05 08:15:23;;;;;;;99.72;63.20;;;;;;;13.09;100.00;100421.03;1715259;82;21137;-70
2022/09/05 08:18:17;;;;;;;97.12;59.70;;;;;;;13.24;100.00;100416.98;1720630;82;21381;-69
2022/09/05 08:21:02;;;;;;;85.45;54.67;;;;;;;13.52;100.00;100414.23;1709120;82;21069;-68
2022/09/05 08:24:08;;;;;;;79.20;50.60;;;;;;;13.98;100.00;100410.33;1724988;81;21503;-69
2022/09/05 08:26:52;;;;;;;75.80;49.85;;;;;;;14.33;100.00;100400.63;1725008;82;21506;-68
2022/09/05 08:29:30;;;;;;;65.67;44.88;;;;;;;14.73;100.00;100396.91;1718624;82;21004;-67
2022/09/05 08:32:21;;;;;;;61.95;42.70;;;;;;;15.19;100.00;100395.22;1711531;82;21040;-67
2022/09/05 08:35:05;;;;;;;73.95;51.53;;;;;;;15.67;100.00;100391.52;1727005;82;20965;-67
2022/09/05 08:37:32;;;;;;;74.12;50.35;;;;;;;16.18;100.00;100394.55;1720633;82;21046;-67
2022/09/05 08:40:09;;;;;;;65.90;47.62;;;;;;;16.39;100.00;100394.56;1714974;82;21028;-67
2022/09/05 08:43:06;;;;;;;52.73;38.30;;;;;;;16.68;100.00;100390.91;1733702;82;21344;-68
2022/09/05 08:45:56;;;;;;;49.13;35.55;;;;;;;17.07;100.00;100388.69;1728260;82;21081;-67
2022/09/05 08:48:57;;;;;;;40.28;28.40;;;;;;;17.50;100.00;100387.16;1747733;82;21018;-67
2022/09/05 08:51:41;;;;;;;39.98;29.27;;;;;;;17.92;100.00;100380.63;1734721;82;21038;-68
2022/09/05 08:54:15;;;;;;;42.20;30.10;;;;;;;18.15;100.00;100368.03;1746628;82;20975;-67
2022/09/05 08:57:15;;;;;;;27.97;20.63;;;;;;;18.49;100.00;100369.55;1733248;82;21082;-67
2022/09/05 09:00:05;;;;;;;25.77;18.67;;;;;;;18.78;100.00;100368.06;1693569;82;21114;-68
2022/09/05 09:03:01;;;;;;;35.38;23.25;;;;;;;19.03;100.00;100357.56;1723103;82;21014;-68
2022/09/05 09:05:53;;;;;;;28.05;20.15;;;;;;;19.17;100.00;100354.99;1739377;81;21664;-68
2022/09/05 09:08:52;;;;;;;29.85;20.43;;;;;;;19.30;100.00;100356.89;1741164;82;21569;-67
2022/09/05 09:11:27;;;;;;;26.60;19.52;;;;;;;19.30;100.00;100350.55;1738443;82;21116;-67
2022/09/05 09:14:15;;;;;;;26.37;19.37;;;;;;;19.33;100.00;100353.50;1750312;82;20995;-68
2022/09/05 09:17:16;;;;;;;21.68;14.83;;;;;;;19.49;100.00;100357.26;1750787;82;22593;-68
2022/09/05 09:19:53;;;;;;;20.92;15.28;;;;;;;19.73;100.00;100348.86;1741767;82;21054;-68
2022/09/05 09:22:55;;;;;;;18.92;13.22;;;;;;;20.06;100.00;100346.57;1743367;82;21047;-67
2022/09/05 09:25:38;;;;;;;19.60;13.30;;;;;;;20.34;100.00;100338.31;1744729;82;21494;-68
2022/09/05 09:28:13;;;;;;;18.92;13.43;;;;;;;20.43;100.00;100337.52;1751210;82;21478;-68
2022/09/05 09:31:11;;;;;;;22.20;15.53;;;;;;;20.37;97.92;100338.82;1750168;82;21406;-68
2022/09/05 09:33:48;;;;;;;15.18;11.00;;;;;;;20.13;95.02;100336.42;1750839;82;21588;-69
2022/09/05 09:36:45;;;;;;;13.83;9.40;;;;;;;19.87;92.62;100342.67;1745011;82;21038;-68
2022/09/05 09:39:29;;;;;;;17.23;11.47;;;;;;;19.59;93.63;100334.92;1749524;82;21082;-68
2022/09/05 09:42:04;;;;;;;14.93;9.75;;;;;;;19.58;93.18;100336.05;1734284;82;21431;-68
2022/09/05 09:44:56;;;;;;;16.45;11.28;;;;;;;19.48;92.50;100340.47;1728134;82;21063;-68
2022/09/05 09:47:56;;;;;;;20.27;12.15;;;;;;;19.37;92.18;100328.28;1728376;82;21030;-68
2022/09/05 09:50:49;;;;;;;15.20;10.48;;;;;;;19.07;96.98;100328.21;1732310;82;21118;-68
2022/09/05 09:53:33;;;;;;;14.45;9.75;;;;;;;18.80;98.76;100322.26;1741362;82;20991;-69
2022/09/05 09:56:15;;;;;;;13.38;8.78;;;;;;;18.71;100.00;100319.41;1723477;82;21098;-68
2022/09/05 09:59:06;;;;;;;12.40;7.60;;;;;;;18.58;100.00;100312.01;1716553;82;20979;-68
2022/09/05 10:02:10;;;;;;;12.20;7.05;;;;;;;18.35;100.00;100310.31;1710163;82;21138;-68
2022/09/05 10:04:55;;;;;;;9.50;6.28;;;;;;;18.30;100.00;100313.98;1665544;82;21544;-70
2022/09/05 10:07:39;;;;;;;12.47;6.80;;;;;;;18.31;97.89;100305.16;1720279;82;21059;-67
2022/09/05 10:10:55;;;;;;;7.25;4.50;;;;;;;18.22;99.83;100298.73;1733610;82;21056;-68
2022/09/05 10:13:33;;;;;;;7.95;5.37;;;;;;;18.30;98.03;100295.25;1727862;82;21034;-68
2022/09/05 10:16:21;;;;;;;10.98;6.15;;;;;;;18.39;95.08;100288.69;1731074;82;21473;-67
2022/09/05 10:19:18;;;;;;;11.18;6.20;;;;;;;18.37;95.52;100294.27;1722791;82;21043;-68
2022/09/05 10:22:12;;;;;;;11.35;5.95;;;;;;;18.37;96.74;100290.95;1733297;82;21138;-68
2022/09/05 10:25:09;;;;;;;11.55;6.58;;;;;;;18.48;99.62;100285.20;1699603;82;20983;-68
2022/09/05 10:28:04;;;;;;;12.15;6.42;;;;;;;18.62;98.33;100282.69;1714805;82;21039;-68
2022/09/05 10:30:47;;;;;;;10.40;6.17;;;;;;;18.67;100.00;100290.03;1700070;83;21029;-68
2022/09/05 10:33:38;;;;;;;10.20;5.95;;;;;;;18.75;98.04;100287.33;1743888;82;20999;-68
2022/09/05 10:36:26;;;;;;;7.60;4.87;;;;;;;18.67;95.76;100288.66;1734606;82;21061;-68
2022/09/05 10:39:24;;;;;;;9.85;4.80;;;;;;;18.46;93.84;100284.13;1717726;82;21023;-68
2022/09/05 10:41:57;;;;;;;10.38;4.70;;;;;;;18.27;91.76;100280.16;1717625;81;21098;-68
2022/09/05 10:44:40;;;;;;;8.23;4.75;;;;;;;18.06;94.69;100274.02;1738540;80;21031;-68
2022/09/05 10:47:39;;;;;;;7.25;4.92;;;;;;;17.96;96.73;100276.41;1733970;82;21106;-68
2022/09/05 10:50:29;;;;;;;9.45;5.12;;;;;;;18.03;97.63;100271.30;1728395;82;21082;-67
2022/09/05 10:53:25;;;;;;;7.47;4.90;;;;;;;18.15;97.08;100266.64;1729513;82;21070;-68
2022/09/05 10:56:10;;;;;;;7.95;4.35;;;;;;;18.27;95.46;100262.25;1721758;82;21063;-66
2022/09/05 10:59:04;;;;;;;9.68;4.25;;;;;;;18.43;92.15;100264.08;1722133;82;21055;-67
2022/09/05 11:02:03;;;;;;;8.10;4.87;;;;;;;18.61;97.42;100256.80;1739503;80;21674;-67
2022/09/05 11:05:10;;;;;;;7.80;4.47;;;;;;;18.84;86.89;100251.55;1732621;82;21090;-66
2022/09/05 11:08:05;;;;;;;8.80;4.28;;;;;;;18.93;85.86;100249.66;1724238;82;21886;-67
2022/09/05 11:10:50;;;;;;;8.93;4.83;;;;;;;19.04;81.89;100254.34;1730683;82;22181;-66
2022/09/05 11:13:38;;;;;;;20.08;10.80;;;;;;;19.16;78.25;100250.45;1737430;82;21046;-67
2022/09/05 11:16:20;;;;;;;28.55;19.10;;;;;;;19.18;73.85;100258.66;1725983;82;21098;-66
2022/09/05 11:19:05;;;;;;;32.10;22.02;;;;;;;19.01;74.09;100250.28;1722792;82;21046;-67
2022/09/05 11:22:01;;;;;;;35.20;23.47;;;;;;;18.79;74.03;100254.42;1732784;82;21034;-66
2022/09/05 11:24:51;;;;;;;34.92;21.90;;;;;;;18.64;77.72;100259.74;1730125;82;21530;-67
2022/09/05 11:27:39;;;;;;;31.45;21.42;;;;;;;18.43;78.50;100259.12;1728188;82;21066;-67
2022/09/05 11:30:15;;;;;;;32.55;21.33;;;;;;;18.18;83.63;100266.84;1732061;82;21002;-67
2022/09/05 11:33:06;;;;;;;31.42;21.15;;;;;;;17.97;85.66;100263.45;1740623;82;21620;-66
2022/09/05 11:35:37;;;;;;;34.43;23.30;;;;;;;17.87;90.61;100261.18;1737048;82;21568;-67
2022/09/05 11:38:27;;;;;;;36.38;24.12;;;;;;;17.85;85.86;100252.39;1729657;82;21050;-66
2022/09/05 11:41:27;;;;;;;30.10;20.95;;;;;;;17.90;83.25;100241.28;1712072;82;21059;-66
2022/09/05 11:44:09;;;;;;;34.48;22.48;;;;;;;18.03;81.53;100242.37;1735738;81;21097;-66
2022/09/05 11:46:49;;;;;;;32.65;21.73;;;;;;;18.19;79.23;100230.46;1730076;82;21893;-67
2022/09/05 11:49:47;;;;;;;36.73;22.70;;;;;;;18.36;78.68;100227.30;1733955;82;21057;-68
2022/09/05 11:52:41;;;;;;;27.65;19.37;;;;;;;18.58;76.44;100226.53;1742635;82;21059;-67
2022/09/05 11:55:53;;;;;;;27.98;18.30;;;;;;;18.84;70.64;100228.11;1735904;81;21020;-67
2022/09/05 11:59:12;;;;;;;28.00;18.23;;;;;;;18.96;63.88;100224.75;1724475;82;21026;-68
2022/09/05 12:02:14;;;;;;;19.27;11.65;;;;;;;18.94;64.43;100227.84;1741904;82;21106;-67
2022/09/05 12:05:14;;;;;;;16.85;9.18;;;;;;;18.87;72.48;100235.19;1722088;82;21050;-68
2022/09/05 12:08:19;;;;;;;13.05;8.30;;;;;;;18.67;76.57;100228.78;1688930;82;21094;-68
2022/09/05 12:11:46;;;;;;;13.88;7.45;;;;;;;18.48;79.74;100239.72;1671511;85;21129;-71
2022/09/05 12:14:41;;;;;;;9.93;6.25;;;;;;;18.28;80.02;100236.30;1674234;85;21052;-70
2022/09/05 12:17:28;;;;;;;11.03;6.05;;;;;;;18.02;82.70;100232.50;1704109;84;20998;-69
2022/09/05 12:20:23;;;;;;;11.35;6.78;;;;;;;17.99;84.16;100230.37;1704069;84;20999;-68
2022/09/05 12:23:27;;;;;;;15.08;8.90;;;;;;;18.02;80.41;100227.55;1697812;84;21014;-69
2022/09/05 12:26:03;;;;;;;13.10;8.30;;;;;;;18.04;78.48;100224.73;1727781;82;21043;-71
2022/09/05 12:28:33;;;;;;;;;;;;;;;18.13;73.86;100218.75;1734572;82;21090;-68
2022/09/05 12:31:16;;;;;;;14.63;8.68;;;;;;;18.16;74.89;100220.88;1731572;82;20126;-70
2022/09/05 12:33:46;;;;;;;16.25;11.12;;;;;;;18.19;73.17;100223.58;1736126;82;21617;-69
2022/09/05 12:36:34;;;;;;;20.25;12.60;;;;;;;18.32;70.43;100213.06;1739733;82;21058;-70
2022/09/05 12:39:35;;;;;;;22.55;14.53;;;;;;;18.45;67.50;100213.59;1737520;82;21121;-66
2022/09/05 12:42:08;;;;;;;19.35;13.83;;;;;;;18.52;63.67;100218.14;1730340;82;21038;-67
2022/09/05 12:45:20;;;;;;;21.25;14.10;;;;;;;18.40;60.71;100218.66;1748070;82;21059;-67
2022/09/05 12:48:19;;;;;;;23.02;13.40;;;;;;;18.26;60.22;100211.00;1734736;82;21031;-67